Time;durP1;ratioP1;P1;durP2;ratioP2;P2;SDS_P1;SDS_P2;PMS_P1;PMS_P2;Temp;Humidity;BMP_temperature;BMP_pressure;BME280_temperature;BME280_humidity;BME280_pressure;Samples;Min_cycle;Max_cycle;Signal;HPM_P1;HPM_P2
2023/01/25 00:02:17;;;;;;;10.93;9.05;;;0.00;99.90;;;;;;4940428;29;20063;-88
2023/01/25 00:04:44;;;;;;;16.75;7.38;;;0.00;99.90;;;;;;4935448;28;20047;-88
2023/01/25 00:07:12;;;;;;;15.02;9.82;;;0.00;99.90;;;;;;4947869;29;20059;-86
2023/01/25 00:09:40;;;;;;;13.65;9.85;;;0.00;99.90;;;;;;4936230;29;20054;-86
2023/01/25 00:12:08;;;;;;;15.45;8.65;;;0.00;99.90;;;;;;4941709;28;20047;-86
2023/01/25 00:14:36;;;;;;;17.52;9.70;;;0.00;99.90;;;;;;4945917;29;20070;-87
2023/01/25 00:17:05;;;;;;;20.52;11.75;;;0.00;99.90;;;;;;4940599;29;20519;-86
2023/01/25 00:19:32;;;;;;;16.75;9.02;;;0.00;99.90;;;;;;4943419;29;20424;-87
2023/01/25 00:22:00;;;;;;;16.45;13.02;;;0.00;99.90;;;;;;4945533;28;20051;-87
2023/01/25 00:24:28;;;;;;;16.30;10.75;;;0.00;99.90;;;;;;4940587;28;20044;-87
2023/01/25 00:26:55;;;;;;;15.73;9.82;;;0.00;99.90;;;;;;4938706;29;20058;-87
2023/01/25 00:29:23;;;;;;;14.68;10.00;;;0.00;99.90;;;;;;4945197;28;20051;-87
2023/01/25 00:32:00;;;;;;;16.05;8.75;;;0.00;99.90;;;;;;4940024;29;20052;-88
2023/01/25 00:34:41;;;;;;;19.00;10.43;;;0.00;99.90;;;;;;4944491;29;20059;-88
2023/01/25 00:37:38;;;;;;;8.00;7.22;;;0.00;99.90;;;;;;4941366;28;20059;-87
2023/01/25 00:40:09;;;;;;;13.75;9.65;;;-0.10;99.90;;;;;;4935725;29;20054;-87
2023/01/25 00:42:38;;;;;;;18.00;9.73;;;-0.10;99.90;;;;;;4943928;29;20071;-88
2023/01/25 00:45:09;;;;;;;14.38;8.93;;;-0.10;99.90;;;;;;4940021;29;20055;-87
2023/01/25 00:47:37;;;;;;;18.27;11.52;;;-0.10;99.90;;;;;;4943214;29;20058;-88
2023/01/25 00:50:06;;;;;;;16.67;10.73;;;0.00;99.90;;;;;;4941476;29;20052;-87
2023/01/25 00:52:38;;;;;;;16.50;10.43;;;0.00;99.90;;;;;;4944157;28;20058;-87
2023/01/25 00:55:07;;;;;;;16.75;9.63;;;-0.10;99.90;;;;;;4944462;29;20052;-87
2023/01/25 00:57:35;;;;;;;15.40;13.10;;;0.00;99.90;;;;;;4944849;29;20039;-87
2023/01/25 01:00:04;;;;;;;17.27;11.88;;;0.00;99.90;;;;;;4926162;29;20055;-87
2023/01/25 01:02:32;;;;;;;16.85;11.32;;;0.00;99.90;;;;;;4950975;28;20063;-87
2023/01/25 01:05:00;;;;;;;18.27;10.30;;;0.00;99.90;;;;;;4938751;28;20419;-87
2023/01/25 01:07:31;;;;;;;17.40;10.15;;;0.00;99.90;;;;;;4943633;29;20051;-87
2023/01/25 01:09:59;;;;;;;16.83;9.40;;;0.00;99.90;;;;;;4938604;29;20404;-86
2023/01/25 01:12:27;;;;;;;15.43;9.70;;;-0.10;99.90;;;;;;4926870;29;20043;-88
2023/01/25 01:14:56;;;;;;;11.93;8.73;;;-0.10;99.90;;;;;;4950648;29;20586;-87
2023/01/25 01:17:25;;;;;;;21.25;16.80;;;-0.10;99.90;;;;;;4945282;29;20464;-88
2023/01/25 01:19:52;;;;;;;14.02;11.43;;;-0.20;99.90;;;;;;4919085;29;20047;-88
2023/01/25 01:22:20;;;;;;;20.48;9.00;;;-0.20;99.90;;;;;;4927928;29;20051;-88
2023/01/25 01:24:48;;;;;;;15.60;8.07;;;-0.20;99.90;;;;;;4934150;29;20054;-87
2023/01/25 01:27:16;;;;;;;20.40;11.77;;;-0.20;99.90;;;;;;4943743;29;20059;-88
2023/01/25 01:29:43;;;;;;;9.13;6.70;;;-0.20;99.90;;;;;;4940463;29;20051;-87
2023/01/25 01:32:11;;;;;;;16.00;9.88;;;-0.10;99.90;;;;;;4939969;28;20415;-88
2023/01/25 01:34:39;;;;;;;18.33;13.52;;;-0.10;99.90;;;;;;4938804;29;20638;-87
2023/01/25 01:37:06;;;;;;;13.57;8.25;;;-0.20;99.90;;;;;;4946228;28;20047;-88
2023/01/25 01:39:34;;;;;;;16.98;10.52;;;-0.20;99.90;;;;;;4928831;29;20424;-86
2023/01/25 01:42:03;;;;;;;17.50;14.10;;;-0.20;99.90;;;;;;4943794;28;20046;-87
2023/01/25 01:44:51;;;;;;;14.93;8.80;;;-0.20;99.90;;;;;;4941955;29;20397;-88
2023/01/25 01:47:31;;;;;;;10.70;7.05;;;-0.10;99.90;;;;;;4939700;29;20659;-87
2023/01/25 01:50:16;;;;;;;14.63;10.98;;;-0.20;99.90;;;;;;4939089;29;20050;-87
2023/01/25 01:52:44;;;;;;;13.20;9.60;;;-0.10;99.90;;;;;;4940067;28;20055;-88
2023/01/25 01:55:20;;;;;;;19.67;10.90;;;-0.10;99.90;;;;;;4940392;29;20067;-88
2023/01/25 01:57:52;;;;;;;16.42;8.77;;;-0.10;99.90;;;;;;4944029;28;20062;-88
2023/01/25 02:00:28;;;;;;;21.63;10.85;;;-0.10;99.90;;;;;;4944938;28;20074;-87
2023/01/25 02:02:57;;;;;;;17.88;12.00;;;-0.10;99.90;;;;;;4939804;28;20056;-86
2023/01/25 02:05:44;;;;;;;16.55;13.05;;;-0.10;99.90;;;;;;4939998;29;20047;-87
2023/01/25 02:08:13;;;;;;;14.23;8.82;;;-0.20;99.90;;;;;;4935350;28;20519;-86
2023/01/25 02:10:43;;;;;;;18.67;9.43;;;-0.20;99.90;;;;;;4931941;29;20055;-86
2023/01/25 02:13:10;;;;;;;20.58;9.73;;;-0.20;99.90;;;;;;4946543;28;20062;-86
2023/01/25 02:15:50;;;;;;;7.32;6.68;;;-0.20;99.90;;;;;;4933933;29;20055;-87
2023/01/25 02:18:19;;;;;;;12.70;8.50;;;-0.20;99.90;;;;;;4913266;29;20048;-86
2023/01/25 02:20:50;;;;;;;15.23;8.00;;;-0.20;99.90;;;;;;4907552;29;20062;-87
2023/01/25 02:23:41;;;;;;;12.73;10.13;;;-0.20;99.90;;;;;;4943954;28;20063;-87
2023/01/25 02:26:10;;;;;;;18.33;10.80;;;-0.20;99.90;;;;;;4934692;29;20047;-86
2023/01/25 02:29:01;;;;;;;22.75;12.15;;;-0.20;99.90;;;;;;4945170;28;20052;-86
2023/01/25 02:31:28;;;;;;;15.80;10.00;;;-0.20;99.90;;;;;;4941365;29;20047;-86
2023/01/25 02:34:00;;;;;;;14.53;9.43;;;-0.20;99.90;;;;;;4947862;29;20067;-87
2023/01/25 02:36:32;;;;;;;18.58;11.18;;;-0.20;99.90;;;;;;4945514;29;20640;-85
2023/01/25 02:39:04;;;;;;;15.95;10.75;;;-0.20;99.90;;;;;;4937778;29;20056;-86
2023/01/25 02:41:37;;;;;;;10.02;7.90;;;-0.10;99.90;;;;;;4950611;29;20046;-86
2023/01/25 02:44:10;;;;;;;14.77;8.65;;;-0.20;99.90;;;;;;4944009;28;20051;-86
2023/01/25 02:46:39;;;;;;;18.02;8.43;;;-0.20;99.90;;;;;;4941468;29;20511;-86
2023/01/25 02:49:08;;;;;;;5.18;4.05;;;-0.20;99.90;;;;;;4945263;29;20039;-86
2023/01/25 02:51:40;;;;;;;13.60;9.77;;;-0.20;99.90;;;;;;4944224;29;20405;-86
2023/01/25 02:54:10;;;;;;;13.60;7.68;;;-0.20;99.90;;;;;;4934934;29;20047;-86
2023/01/25 02:56:39;;;;;;;28.80;7.90;;;-0.20;99.90;;;;;;4946615;29;20078;-86
2023/01/25 02:59:09;;;;;;;15.10;8.80;;;-0.20;99.90;;;;;;4945411;29;20059;-87
2023/01/25 03:01:42;;;;;;;21.43;9.07;;;-0.20;99.90;;;;;;4940311;29;20051;-87
2023/01/25 03:04:11;;;;;;;15.50;9.65;;;-0.20;99.90;;;;;;4945348;28;20071;-86
2023/01/25 03:06:39;;;;;;;23.48;7.68;;;-0.20;99.90;;;;;;4946832;29;20063;-86
2023/01/25 03:09:20;;;;;;;13.68;8.30;;;-0.20;99.90;;;;;;4939705;29;20051;-87
2023/01/25 03:11:49;;;;;;;14.63;8.02;;;-0.20;99.90;;;;;;4946948;28;20051;-86
2023/01/25 03:14:19;;;;;;;12.52;9.23;;;-0.10;99.90;;;;;;4926659;29;20070;-86
2023/01/25 03:16:47;;;;;;;11.85;6.32;;;-0.10;99.90;;;;;;4933604;29;20492;-85
2023/01/25 03:19:16;;;;;;;16.88;8.00;;;-0.10;99.90;;;;;;4943779;29;20047;-86
2023/01/25 03:21:45;;;;;;;13.18;8.40;;;-0.10;99.90;;;;;;4919418;29;20045;-86
2023/01/25 03:24:15;;;;;;;8.65;7.07;;;-0.10;99.90;;;;;;4945353;28;20043;-86
2023/01/25 03:27:19;;;;;;;16.52;10.82;;;-0.20;99.90;;;;;;4937833;29;20066;-86
2023/01/25 03:29:47;;;;;;;13.63;7.55;;;-0.20;99.90;;;;;;4943506;29;20051;-86
2023/01/25 03:32:19;;;;;;;16.88;8.15;;;-0.20;99.90;;;;;;4927305;29;20064;-86
2023/01/25 03:34:48;;;;;;;14.43;7.78;;;-0.20;99.90;;;;;;4919588;29;20074;-86
2023/01/25 03:37:20;;;;;;;12.63;8.75;;;-0.20;99.90;;;;;;4945923;29;20050;-86
2023/01/25 03:39:49;;;;;;;13.30;8.65;;;-0.20;99.90;;;;;;4948777;28;20054;-85
2023/01/25 03:42:20;;;;;;;16.92;11.05;;;-0.20;99.90;;;;;;4956257;29;20054;-86
2023/01/25 03:44:51;;;;;;;17.52;8.13;;;-0.20;99.90;;;;;;4936494;28;20044;-76
2023/01/25 03:47:19;;;;;;;10.98;7.45;;;-0.20;99.90;;;;;;4937887;29;20043;-75
2023/01/25 03:49:47;;;;;;;14.50;9.15;;;-0.20;99.90;;;;;;4928939;29;20055;-77
2023/01/25 03:52:18;;;;;;;17.02;9.73;;;-0.20;99.90;;;;;;4938322;29;20043;-86
2023/01/25 03:54:46;;;;;;;13.15;8.95;;;-0.20;99.90;;;;;;4948952;28;20047;-86
2023/01/25 03:57:14;;;;;;;17.15;8.70;;;-0.20;99.90;;;;;;4958191;28;20050;-85
2023/01/25 03:59:51;;;;;;;26.15;11.82;;;-0.20;99.90;;;;;;4942021;28;20058;-86
2023/01/25 04:02:19;;;;;;;14.25;10.80;;;-0.20;99.90;;;;;;4958721;28;20047;-87
2023/01/25 04:04:47;;;;;;;10.57;7.70;;;-0.20;99.90;;;;;;4957847;28;20054;-87
2023/01/25 04:07:18;;;;;;;17.30;9.27;;;-0.20;99.90;;;;;;4958185;28;20050;-85
2023/01/25 04:09:49;;;;;;;12.63;7.72;;;-0.20;99.90;;;;;;4974753;28;20047;-84
2023/01/25 04:12:17;;;;;;;8.57;6.97;;;-0.20;99.90;;;;;;4957973;28;20042;-85
2023/01/25 04:14:46;;;;;;;19.38;6.85;;;-0.20;99.90;;;;;;4958891;28;20411;-87
2023/01/25 04:17:19;;;;;;;13.13;6.80;;;-0.20;99.90;;;;;;4957750;28;20047;-85
2023/01/25 04:19:58;;;;;;;11.23;7.50;;;-0.20;99.90;;;;;;4956856;28;20063;-86
2023/01/25 04:22:33;;;;;;;15.38;9.07;;;-0.30;99.90;;;;;;4949999;29;20052;-85
2023/01/25 04:25:02;;;;;;;15.07;7.53;;;-0.30;99.90;;;;;;4938179;28;20412;-86
2023/01/25 04:27:29;;;;;;;13.02;9.18;;;-0.30;99.90;;;;;;4967800;28;20043;-86
2023/01/25 04:30:10;;;;;;;10.63;8.85;;;-0.30;99.90;;;;;;4971746;28;20051;-85
2023/01/25 04:33:03;;;;;;;18.92;9.15;;;-0.30;99.90;;;;;;4977565;28;20069;-85
2023/01/25 04:35:32;;;;;;;15.73;10.10;;;-0.30;99.90;;;;;;4959438;28;20034;-85
2023/01/25 04:38:02;;;;;;;13.48;7.55;;;-0.30;99.90;;;;;;4971484;28;20286;-85
2023/01/25 04:40:36;;;;;;;12.82;8.45;;;-0.30;99.90;;;;;;4992106;28;20030;-85
2023/01/25 04:43:05;;;;;;;12.10;8.18;;;-0.20;99.90;;;;;;4989047;28;20034;-86
2023/01/25 04:45:35;;;;;;;9.73;5.78;;;-0.20;99.90;;;;;;4974607;28;20038;-86
2023/01/25 04:48:09;;;;;;;12.98;8.95;;;-0.30;99.90;;;;;;4979588;28;20038;-85
2023/01/25 04:50:42;;;;;;;11.35;6.25;;;-0.30;99.90;;;;;;4970503;28;20043;-85
2023/01/25 04:53:11;;;;;;;10.70;7.43;;;-0.30;99.90;;;;;;4957128;28;20061;-85
2023/01/25 04:55:46;;;;;;;14.35;8.77;;;-0.30;99.90;;;;;;4988903;28;20043;-85
2023/01/25 04:58:15;;;;;;;19.27;9.35;;;-0.20;99.90;;;;;;4971100;28;20373;-85
2023/01/25 05:00:43;;;;;;;17.20;12.35;;;-0.40;99.90;;;;;;4971325;28;20034;-84
2023/01/25 05:03:11;;;;;;;18.35;7.55;;;-0.40;99.90;;;;;;4977332;28;20049;-85
2023/01/25 05:05:46;;;;;;;8.57;7.75;;;-0.40;99.90;;;;;;4973969;28;20057;-85
2023/01/25 05:08:17;;;;;;;10.52;7.50;;;-0.40;99.90;;;;;;4958498;28;20045;-84
2023/01/25 05:10:45;;;;;;;13.30;7.07;;;-0.40;99.90;;;;;;4973781;28;20045;-85
2023/01/25 05:13:32;;;;;;;7.57;5.53;;;-0.50;99.90;;;;;;4974991;28;20042;-85
2023/01/25 05:16:12;;;;;;;11.20;6.88;;;-0.50;99.90;;;;;;4962707;28;20472;-85
2023/01/25 05:18:40;;;;;;;9.38;7.10;;;-0.50;99.90;;;;;;4935220;28;20663;-85
2023/01/25 05:24:07;;;;;;;8.18;5.57;;;-0.50;99.90;;;;;;4956367;28;20058;-84
2023/01/25 05:29:21;;;;;;;8.60;5.28;;;-0.60;99.90;;;;;;4938993;28;20043;-85
2023/01/25 05:32:01;;;;;;;8.65;7.57;;;-0.60;99.90;;;;;;4944410;28;20051;-85
2023/01/25 05:34:29;;;;;;;16.50;8.43;;;-0.60;99.90;;;;;;4951175;28;20058;-84
2023/01/25 05:36:57;;;;;;;11.48;7.38;;;-0.60;99.90;;;;;;4950075;28;20420;-85
2023/01/25 05:39:25;;;;;;;12.30;8.98;;;-0.50;99.90;;;;;;4932547;28;20666;-85
2023/01/25 05:41:54;;;;;;;9.15;6.72;;;-0.60;99.90;;;;;;4947746;28;20065;-86
2023/01/25 05:44:22;;;;;;;11.02;9.35;;;-0.50;99.90;;;;;;4932635;28;20794;-83
2023/01/25 05:46:51;;;;;;;16.38;9.65;;;-0.60;99.90;;;;;;4950630;28;20404;-86
2023/01/25 05:49:20;;;;;;;13.20;7.32;;;-0.60;99.90;;;;;;4965982;28;20431;-84
2023/01/25 05:51:48;;;;;;;16.38;11.73;;;-0.60;99.90;;;;;;4944794;28;20143;-85
2023/01/25 05:54:16;;;;;;;12.73;7.30;;;-0.60;99.90;;;;;;4960722;28;20093;-84
2023/01/25 05:56:50;;;;;;;12.15;8.85;;;-0.60;99.90;;;;;;4951007;28;20043;-84
2023/01/25 05:59:18;;;;;;;13.43;9.18;;;-0.60;99.90;;;;;;4941091;28;20043;-84
2023/01/25 06:01:47;;;;;;;14.50;11.23;;;-0.60;99.90;;;;;;4947967;28;20051;-82
2023/01/25 06:04:16;;;;;;;12.30;8.07;;;-0.60;99.90;;;;;;4944512;28;20043;-84
2023/01/25 06:06:44;;;;;;;11.05;7.80;;;-0.60;99.90;;;;;;4932446;28;20776;-83
2023/01/25 06:09:12;;;;;;;14.80;8.10;;;-0.60;99.90;;;;;;4945587;28;20066;-83
2023/01/25 06:11:44;;;;;;;9.82;8.52;;;-0.60;99.90;;;;;;4948400;28;20402;-83
2023/01/25 06:14:12;;;;;;;10.50;8.30;;;-0.60;99.90;;;;;;4952149;28;20051;-82
2023/01/25 06:16:40;;;;;;;7.95;7.07;;;-0.60;99.90;;;;;;4928533;29;20044;-83
2023/01/25 06:19:27;;;;;;;7.00;5.28;;;-0.50;99.90;;;;;;4972444;28;20046;-84
2023/01/25 06:22:27;;;;;;;9.23;7.22;;;-0.50;99.90;;;;;;4934534;28;20403;-85
2023/01/25 06:24:56;;;;;;;5.68;5.13;;;-0.50;99.90;;;;;;4933072;28;20279;-86
2023/01/25 06:27:23;;;;;;;9.90;5.75;;;-0.50;99.90;;;;;;4965866;28;20385;-85
2023/01/25 06:29:51;;;;;;;8.85;8.15;;;-0.50;99.90;;;;;;4965376;28;20058;-85
2023/01/25 06:32:19;;;;;;;6.50;5.53;;;-0.50;99.90;;;;;;4962106;28;20047;-86
2023/01/25 06:34:47;;;;;;;11.07;8.88;;;-0.60;99.90;;;;;;4953873;28;20050;-86
2023/01/25 06:37:21;;;;;;;6.97;6.18;;;-0.60;99.90;;;;;;4949489;28;20427;-85
2023/01/25 06:39:49;;;;;;;11.68;7.25;;;-0.60;99.90;;;;;;4962834;28;20054;-85
2023/01/25 06:42:17;;;;;;;6.57;5.22;;;-0.60;99.90;;;;;;4950607;28;20062;-85
2023/01/25 06:44:45;;;;;;;5.03;4.63;;;-0.60;99.90;;;;;;4962678;28;20047;-85
2023/01/25 06:47:15;;;;;;;7.05;6.18;;;-0.60;99.90;;;;;;4933712;28;20054;-85
2023/01/25 06:49:43;;;;;;;15.43;8.05;;;-0.60;99.90;;;;;;4963614;28;20050;-84
2023/01/25 06:52:11;;;;;;;8.93;5.82;;;-0.60;99.90;;;;;;4945730;28;20058;-85
2023/01/25 06:54:38;;;;;;;17.90;10.77;;;-0.50;99.90;;;;;;4966207;28;20055;-84
2023/01/25 06:57:09;;;;;;;11.38;7.82;;;-0.50;99.90;;;;;;4965648;28;20439;-85
2023/01/25 06:59:36;;;;;;;28.13;18.65;;;-0.50;99.90;;;;;;4963681;28;20062;-85
2023/01/25 07:02:04;;;;;;;14.63;10.13;;;-0.50;99.90;;;;;;4930703;28;20051;-85
2023/01/25 07:04:33;;;;;;;8.07;6.65;;;-0.50;99.90;;;;;;4963597;28;20422;-85
2023/01/25 07:07:00;;;;;;;21.02;8.38;;;-0.40;99.90;;;;;;4970383;28;20059;-84
2023/01/25 07:09:28;;;;;;;12.85;9.38;;;-0.40;99.90;;;;;;4943560;28;20054;-85
2023/01/25 07:11:56;;;;;;;18.05;14.88;;;-0.40;99.90;;;;;;4963625;28;20681;-85
2023/01/25 07:14:23;;;;;;;10.18;8.98;;;-0.40;99.90;;;;;;4948615;29;20052;-85
2023/01/25 07:16:51;;;;;;;10.07;7.32;;;-0.40;99.90;;;;;;4964306;28;20038;-84
2023/01/25 07:19:19;;;;;;;9.75;6.25;;;-0.40;99.90;;;;;;4961230;28;20297;-84
2023/01/25 07:21:47;;;;;;;14.95;8.60;;;-0.40;99.90;;;;;;4936001;28;20526;-84
2023/01/25 07:24:18;;;;;;;10.57;8.35;;;-0.40;99.90;;;;;;4959392;28;20065;-84
2023/01/25 07:26:49;;;;;;;9.60;6.80;;;-0.40;99.90;;;;;;4965139;28;20058;-85
2023/01/25 07:29:16;;;;;;;20.17;12.18;;;-0.40;99.90;;;;;;4948011;28;20274;-85
2023/01/25 07:31:44;;;;;;;10.77;6.55;;;-0.40;99.90;;;;;;4939227;28;20678;-84
2023/01/25 07:34:12;;;;;;;15.02;10.30;;;-0.40;99.90;;;;;;4961666;28;20756;-85
2023/01/25 07:36:42;;;;;;;6.13;5.50;;;-0.40;99.90;;;;;;4956538;28;20046;-85
2023/01/25 07:39:13;;;;;;;11.30;6.90;;;-0.30;99.90;;;;;;4967673;28;20058;-85
2023/01/25 07:41:40;;;;;;;10.48;7.82;;;-0.40;99.90;;;;;;4952884;28;20039;-86
2023/01/25 07:44:12;;;;;;;5.22;4.50;;;-0.30;99.90;;;;;;4942913;28;20061;-83
2023/01/25 07:46:46;;;;;;;9.55;6.38;;;-0.40;99.90;;;;;;4930901;28;20066;-85
2023/01/25 07:49:14;;;;;;;12.50;8.57;;;-0.40;99.90;;;;;;4957390;28;20043;-85
2023/01/25 07:51:43;;;;;;;7.40;6.22;;;-0.30;99.90;;;;;;4961334;28;20070;-86
2023/01/25 07:54:11;;;;;;;9.10;6.75;;;-0.30;99.90;;;;;;4962807;28;20408;-86
2023/01/25 07:56:39;;;;;;;11.25;7.90;;;-0.40;99.90;;;;;;4959709;28;20409;-86
2023/01/25 07:59:12;;;;;;;9.48;6.97;;;-0.40;99.90;;;;;;4946902;28;20423;-86
2023/01/25 08:01:42;;;;;;;8.10;4.68;;;-0.40;99.90;;;;;;4963485;28;20054;-85
2023/01/25 08:04:10;;;;;;;8.55;7.15;;;-0.40;99.90;;;;;;4962547;28;20070;-85
2023/01/25 08:06:39;;;;;;;13.43;11.98;;;-0.30;99.90;;;;;;4962739;28;20554;-85
2023/01/25 08:09:16;;;;;;;5.72;4.57;;;-0.40;99.90;;;;;;4937758;28;20051;-86
2023/01/25 08:11:43;;;;;;;7.90;7.20;;;-0.40;99.90;;;;;;4962677;28;20533;-86
2023/01/25 08:14:11;;;;;;;6.88;6.18;;;-0.40;99.90;;;;;;4955983;28;20171;-85
2023/01/25 08:16:39;;;;;;;6.90;4.07;;;-0.40;99.90;;;;;;4966016;28;20038;-85
2023/01/25 08:19:08;;;;;;;7.78;5.88;;;-0.40;99.90;;;;;;4961980;28;20051;-85
2023/01/25 08:21:36;;;;;;;4.97;4.53;;;-0.40;99.90;;;;;;4946241;28;20423;-84
2023/01/25 08:24:06;;;;;;;14.35;7.20;;;-0.40;99.90;;;;;;4940771;28;20073;-85
2023/01/25 08:26:35;;;;;;;11.40;7.32;;;-0.40;99.90;;;;;;4966262;28;20054;-84
2023/01/25 08:29:04;;;;;;;9.15;7.25;;;-0.40;99.90;;;;;;4967439;28;20431;-85
2023/01/25 08:31:34;;;;;;;8.35;6.43;;;-0.30;99.90;;;;;;4965232;28;20086;-86
2023/01/25 08:34:05;;;;;;;8.70;6.10;;;-0.30;99.90;;;;;;4960696;28;20415;-85
2023/01/25 08:36:35;;;;;;;3.15;2.88;;;-0.30;99.90;;;;;;4943120;28;20054;-85
2023/01/25 08:39:06;;;;;;;8.73;4.40;;;-0.30;99.90;;;;;;4960074;28;20043;-86
2023/01/25 08:41:34;;;;;;;9.00;7.15;;;-0.30;99.90;;;;;;4943333;28;20086;-86
2023/01/25 08:44:03;;;;;;;8.70;7.65;;;-0.30;99.90;;;;;;4942044;28;20055;-85
2023/01/25 08:46:32;;;;;;;10.45;4.65;;;-0.40;99.90;;;;;;4943529;28;20051;-85
2023/01/25 08:49:01;;;;;;;8.98;5.70;;;-0.40;99.90;;;;;;4943304;28;20047;-86
2023/01/25 08:51:31;;;;;;;8.10;5.53;;;-0.30;99.90;;;;;;4949046;28;20439;-86
2023/01/25 08:54:09;;;;;;;8.10;7.20;;;-0.30;99.90;;;;;;4964837;28;20691;-85
2023/01/25 08:56:41;;;;;;;11.15;9.27;;;-0.30;99.90;;;;;;4962586;28;20864;-86
2023/01/25 08:59:11;;;;;;;8.68;5.57;;;-0.30;99.90;;;;;;4964924;28;20058;-85
2023/01/25 09:01:39;;;;;;;10.15;6.90;;;-0.30;99.90;;;;;;4963247;28;20575;-85
2023/01/25 09:04:07;;;;;;;10.30;6.95;;;-0.30;99.90;;;;;;4963150;28;20057;-85
2023/01/25 09:06:37;;;;;;;8.85;5.38;;;-0.30;99.90;;;;;;4958480;28;20062;-86
2023/01/25 09:09:07;;;;;;;11.50;6.38;;;-0.30;99.90;;;;;;4959469;28;20148;-86
2023/01/25 09:11:39;;;;;;;6.22;3.88;;;-0.20;99.90;;;;;;4961476;28;20783;-86
2023/01/25 09:14:06;;;;;;;10.18;6.38;;;-0.30;99.90;;;;;;4960524;28;20550;-85
2023/01/25 09:16:34;;;;;;;9.45;6.43;;;-0.30;99.90;;;;;;4958998;28;20681;-86
2023/01/25 09:19:04;;;;;;;12.70;8.18;;;-0.30;99.90;;;;;;4958396;28;20053;-86
2023/01/25 09:21:35;;;;;;;6.53;4.43;;;-0.30;99.90;;;;;;4962308;28;20288;-85
2023/01/25 09:24:03;;;;;;;11.15;8.30;;;-0.30;99.90;;;;;;4959934;28;20051;-86
2023/01/25 09:26:37;;;;;;;14.00;5.40;;;-0.30;99.90;;;;;;4943758;28;20502;-86
2023/01/25 09:29:06;;;;;;;13.57;10.85;;;-0.30;99.90;;;;;;4958289;28;20054;-84
2023/01/25 09:31:38;;;;;;;13.43;6.43;;;-0.30;99.90;;;;;;4961036;28;20065;-84
2023/01/25 09:34:15;;;;;;;6.05;5.45;;;-0.30;99.90;;;;;;4959171;28;20440;-86
2023/01/25 09:36:42;;;;;;;6.00;4.13;;;-0.30;99.90;;;;;;4958654;28;20055;-85
2023/01/25 09:39:13;;;;;;;14.40;6.32;;;-0.30;99.90;;;;;;4927532;28;20051;-85
2023/01/25 09:42:13;;;;;;;17.30;9.23;;;-0.20;99.90;;;;;;4965209;28;20351;-86
2023/01/25 09:44:45;;;;;;;6.30;5.72;;;-0.20;99.90;;;;;;4961099;28;20061;-85
2023/01/25 09:47:27;;;;;;;9.73;6.80;;;-0.10;99.90;;;;;;4961870;28;20047;-85
2023/01/25 09:50:32;;;;;;;14.38;7.55;;;-0.10;99.90;;;;;;4946280;28;20050;-85
2023/01/25 09:53:09;;;;;;;12.95;7.72;;;-0.10;99.90;;;;;;4978306;28;20070;-87
2023/01/25 09:55:39;;;;;;;4.28;3.97;;;-0.10;99.90;;;;;;4959977;28;20062;-85
2023/01/25 09:58:17;;;;;;;14.48;7.47;;;-0.10;99.90;;;;;;4963266;28;20046;-86
2023/01/25 10:00:47;;;;;;;11.48;6.78;;;-0.10;99.90;;;;;;4962265;28;20431;-85
2023/01/25 10:03:35;;;;;;;6.95;3.75;;;-0.10;99.90;;;;;;4951925;28;20065;-85
2023/01/25 10:06:03;;;;;;;9.07;6.57;;;-0.10;99.90;;;;;;4966226;28;20051;-85
2023/01/25 10:08:34;;;;;;;16.30;8.00;;;-0.10;99.90;;;;;;4959581;28;20050;-85
2023/01/25 10:11:12;;;;;;;7.50;6.70;;;-0.10;99.90;;;;;;4977653;28;20047;-85
2023/01/25 10:13:40;;;;;;;8.32;5.15;;;-0.10;99.90;;;;;;4972493;28;20054;-85
2023/01/25 10:16:20;;;;;;;8.70;7.35;;;-0.10;99.90;;;;;;4942202;29;20069;-86
2023/01/25 10:19:24;;;;;;;8.07;5.75;;;-0.10;99.90;;;;;;4958536;29;20039;-87
2023/01/25 10:22:10;;;;;;;14.68;7.75;;;-0.20;99.90;;;;;;4967218;28;20043;-86
2023/01/25 10:24:43;;;;;;;13.32;9.18;;;-0.20;99.90;;;;;;4957715;29;20039;-86
2023/01/25 10:27:19;;;;;;;13.63;9.65;;;-0.20;99.90;;;;;;4941466;29;20047;-85
2023/01/25 10:29:49;;;;;;;15.10;7.43;;;-0.10;99.90;;;;;;4957698;28;20051;-85
2023/01/25 10:32:39;;;;;;;13.00;8.35;;;-0.10;99.90;;;;;;4968498;28;20039;-86
2023/01/25 10:35:30;;;;;;;13.55;9.07;;;0.00;99.90;;;;;;4976549;28;20399;-85
2023/01/25 10:38:14;;;;;;;11.20;8.40;;;0.00;99.90;;;;;;4924726;29;20065;-86
2023/01/25 10:40:51;;;;;;;12.88;8.63;;;-0.10;99.90;;;;;;4957504;28;20044;-85
2023/01/25 10:43:21;;;;;;;12.73;7.43;;;0.00;99.90;;;;;;4993827;28;20042;-86
2023/01/25 10:45:50;;;;;;;10.75;7.55;;;-0.10;99.90;;;;;;4994649;28;20054;-85
2023/01/25 10:48:32;;;;;;;14.98;7.13;;;-0.10;99.90;;;;;;4982136;28;20047;-85
2023/01/25 10:51:00;;;;;;;15.93;7.43;;;-0.10;99.90;;;;;;4973033;28;20065;-85
2023/01/25 10:53:34;;;;;;;14.95;9.70;;;-0.10;99.90;;;;;;4953225;28;20038;-85
2023/01/25 10:56:08;;;;;;;11.95;7.80;;;-0.10;99.90;;;;;;4973520;28;20035;-86
2023/01/25 10:58:45;;;;;;;9.68;7.35;;;-0.10;99.90;;;;;;4987208;28;20406;-85
2023/01/25 11:01:33;;;;;;;16.88;9.48;;;-0.10;99.90;;;;;;4986325;28;20042;-86
2023/01/25 11:04:02;;;;;;;15.02;8.60;;;-0.10;99.90;;;;;;4995041;28;20039;-86
2023/01/25 11:06:32;;;;;;;13.25;8.38;;;-0.10;99.90;;;;;;4989640;28;20039;-86
2023/01/25 11:09:32;;;;;;;6.82;5.15;;;0.00;99.90;;;;;;4978511;28;20046;-86
2023/01/25 11:12:19;;;;;;;14.02;7.10;;;-0.10;99.90;;;;;;4963113;28;20513;-86
2023/01/25 11:14:48;;;;;;;11.50;6.82;;;-0.10;99.90;;;;;;4987777;28;20345;-87
2023/01/25 11:17:23;;;;;;;10.32;7.80;;;-0.20;99.90;;;;;;4990729;28;20058;-86
2023/01/25 11:20:23;;;;;;;9.15;6.53;;;-0.20;99.90;;;;;;4968103;28;20047;-86
2023/01/25 11:22:54;;;;;;;7.45;6.63;;;-0.10;99.90;;;;;;4956082;28;20047;-87
2023/01/25 11:25:27;;;;;;;8.70;6.88;;;-0.20;99.90;;;;;;4985405;28;20061;-86
2023/01/25 11:28:15;;;;;;;9.88;7.03;;;-0.20;99.90;;;;;;4977024;28;20035;-85
2023/01/25 11:30:44;;;;;;;12.93;7.82;;;-0.10;99.90;;;;;;4989856;28;20051;-85
2023/01/25 11:33:14;;;;;;;11.25;7.95;;;-0.20;99.90;;;;;;4990286;28;20041;-86
2023/01/25 11:36:04;;;;;;;12.50;7.10;;;-0.10;99.90;;;;;;4993171;28;20047;-85
2023/01/25 11:38:32;;;;;;;8.45;6.85;;;0.00;99.90;;;;;;4953966;28;20419;-86
2023/01/25 11:41:24;;;;;;;14.57;8.50;;;0.00;99.90;;;;;;4960284;28;20047;-86
2023/01/25 11:44:22;;;;;;;16.75;10.43;;;-0.10;99.90;;;;;;4945347;28;20059;-85
2023/01/25 11:46:50;;;;;;;21.05;9.63;;;-0.10;99.90;;;;;;4966438;28;20608;-86
2023/01/25 11:49:52;;;;;;;16.40;8.75;;;-0.10;99.90;;;;;;4956167;28;20051;-86
2023/01/25 11:52:45;;;;;;;22.27;14.43;;;-0.10;99.90;;;;;;4916056;28;20035;-86
2023/01/25 11:55:43;;;;;;;11.40;8.45;;;0.00;99.90;;;;;;4961589;28;20061;-86
2023/01/25 11:58:18;;;;;;;12.07;9.35;;;0.00;99.90;;;;;;4949067;28;20061;-86
2023/01/25 12:01:17;;;;;;;18.40;11.05;;;-0.10;99.90;;;;;;4962608;28;20848;-87
2023/01/25 12:04:06;;;;;;;18.63;10.80;;;-0.20;99.90;;;;;;4962918;28;20051;-86
2023/01/25 12:06:52;;;;;;;17.58;13.30;;;-0.30;99.90;;;;;;4939643;29;20058;-86
2023/01/25 12:09:55;;;;;;;14.45;9.88;;;-0.30;99.90;;;;;;4960255;28;20495;-86
2023/01/25 12:12:47;;;;;;;19.48;12.75;;;-0.30;99.90;;;;;;4948816;28;20051;-86
2023/01/25 12:15:28;;;;;;;16.98;10.55;;;-0.30;99.90;;;;;;4960377;28;20579;-86
2023/01/25 12:18:28;;;;;;;13.77;6.87;;;-0.30;99.90;;;;;;4944650;28;20047;-86
2023/01/25 12:21:22;;;;;;;7.78;5.22;;;-0.20;99.90;;;;;;4964448;28;20038;-87
2023/01/25 12:24:22;;;;;;;14.43;8.35;;;-0.20;99.90;;;;;;4967242;28;20065;-87
2023/01/25 12:27:19;;;;;;;17.05;8.35;;;-0.10;99.90;;;;;;4959495;28;20062;-86
2023/01/25 12:29:54;;;;;;;15.52;7.20;;;-0.10;99.90;;;;;;4962748;28;20076;-87
2023/01/25 12:32:37;;;;;;;24.77;8.50;;;-0.20;99.90;;;;;;4965337;28;20411;-86
2023/01/25 12:35:17;;;;;;;17.15;8.20;;;-0.20;99.90;;;;;;4967074;28;20058;-86
2023/01/25 12:37:46;;;;;;;7.60;6.38;;;-0.20;99.90;;;;;;4968705;28;20043;-85
2023/01/25 12:40:44;;;;;;;15.85;8.55;;;-0.20;99.90;;;;;;4938940;28;20231;-92
2023/01/25 12:43:20;;;;;;;12.10;8.73;;;-0.20;99.90;;;;;;4947751;28;20058;-88
2023/01/25 12:45:50;;;;;;;30.95;12.20;;;-0.20;99.90;;;;;;4963898;28;20706;-91
2023/01/25 12:48:27;;;;;;;8.93;7.32;;;-0.20;99.90;;;;;;4959457;28;20051;-88
2023/01/25 12:50:57;;;;;;;13.82;6.78;;;-0.20;99.90;;;;;;4962684;28;20070;-86
2023/01/25 12:53:46;;;;;;;13.70;8.55;;;-0.20;99.90;;;;;;4961356;28;20046;-87
2023/01/25 12:56:31;;;;;;;47.47;25.63;;;-0.10;99.90;;;;;;4966515;28;20046;-85
2023/01/25 12:59:08;;;;;;;12.75;9.05;;;-0.10;99.90;;;;;;4962112;28;20077;-85
2023/01/25 13:01:56;;;;;;;18.30;11.15;;;-0.10;99.90;;;;;;4950066;28;20043;-85
2023/01/25 13:04:57;;;;;;;8.82;7.88;;;0.00;99.90;;;;;;4944582;28;20428;-85
2023/01/25 13:07:42;;;;;;;11.85;8.32;;;0.00;99.90;;;;;;4939543;28;20465;-84
2023/01/25 13:10:18;;;;;;;11.88;7.75;;;-0.10;99.90;;;;;;4957672;28;20047;-84
2023/01/25 13:12:56;;;;;;;12.13;8.68;;;-0.20;99.90;;;;;;4962886;28;20042;-85
2023/01/25 13:15:41;;;;;;;13.30;7.53;;;-0.20;99.90;;;;;;4964599;28;20055;-85
2023/01/25 13:18:27;;;;;;;10.98;6.65;;;-0.20;99.90;;;;;;4963748;28;20065;-86